createdAt,value
2022-10-22T00:00:27.729Z,965.62
2022-10-22T00:01:27.961Z,965.63
2022-10-22T00:02:32.111Z,965.59
2022-10-22T00:03:28.483Z,965.59
2022-10-22T00:04:32.954Z,965.63
2022-10-22T00:05:33.842Z,965.64
2022-10-22T00:06:29.413Z,965.75
2022-10-22T00:07:29.621Z,965.82
2022-10-22T00:08:30.044Z,965.89
2022-10-22T00:09:30.223Z,965.97
2022-10-22T00:10:30.467Z,966.00
2022-10-22T00:11:30.709Z,966.11
2022-10-22T00:12:30.948Z,966.25
2022-10-22T00:13:31.217Z,966.41
2022-10-22T00:14:31.475Z,966.56
2022-10-22T00:15:31.718Z,966.59
2022-10-22T00:16:31.962Z,966.58
2022-10-22T00:17:32.203Z,966.55
2022-10-22T00:18:32.485Z,966.48
2022-10-22T00:19:32.725Z,966.36
2022-10-22T00:20:32.964Z,966.26
2022-10-22T00:21:33.211Z,966.17
2022-10-22T00:22:33.490Z,966.13
2022-10-22T00:23:33.713Z,966.06
2022-10-22T00:24:33.958Z,966.17
2022-10-22T00:25:34.208Z,966.22
2022-10-22T00:26:34.464Z,966.19
2022-10-22T00:27:34.727Z,966.11
2022-10-22T00:28:34.993Z,966.05
2022-10-22T00:29:35.247Z,966.15
2022-10-22T00:30:35.473Z,966.18
2022-10-22T00:31:35.799Z,966.23
2022-10-22T00:32:36.145Z,966.20
2022-10-22T00:33:36.405Z,966.13
2022-10-22T00:34:36.664Z,966.13
2022-10-22T00:35:36.898Z,966.14
2022-10-22T00:36:37.171Z,966.22
2022-10-22T00:37:37.449Z,966.27
2022-10-22T00:38:37.697Z,966.34
2022-10-22T00:39:37.950Z,966.35
2022-10-22T00:40:38.189Z,966.37
2022-10-22T00:41:38.486Z,966.35
2022-10-22T00:42:39.345Z,966.33
2022-10-22T00:43:38.968Z,966.29
2022-10-22T00:44:39.216Z,966.26
2022-10-22T00:45:39.470Z,966.19
2022-10-22T00:46:39.748Z,966.14
2022-10-22T00:47:40.753Z,966.11
2022-10-22T00:48:40.294Z,966.06
2022-10-22T00:49:40.585Z,966.02
2022-10-22T00:50:40.841Z,966.08
2022-10-22T00:51:41.085Z,966.07
2022-10-22T02:55:50.393Z,966.69
2022-10-22T02:56:50.694Z,966.62
2022-10-22T02:57:50.977Z,966.65
2022-10-22T02:58:51.270Z,966.66
2022-10-22T02:59:51.556Z,966.66
2022-10-22T03:00:51.890Z,966.72
2022-10-22T03:01:52.182Z,966.67
2022-10-22T03:02:52.450Z,966.62
2022-10-22T03:03:52.708Z,966.60
2022-10-22T03:04:52.996Z,966.60
2022-10-22T03:05:53.266Z,966.61
2022-10-22T03:06:53.549Z,966.60
2022-10-22T03:07:53.826Z,966.57
2022-10-22T03:08:54.128Z,966.55
2022-10-22T03:09:54.388Z,966.59
2022-10-22T03:10:54.677Z,966.58
2022-10-22T03:11:54.978Z,966.58
2022-10-22T03:12:55.249Z,966.64
2022-10-22T03:13:55.553Z,966.63
2022-10-22T03:14:55.820Z,966.63
2022-10-22T03:15:56.070Z,966.59
2022-10-22T03:16:56.357Z,966.60
2022-10-22T03:17:56.632Z,966.57
2022-10-22T03:18:56.910Z,966.58
2022-10-22T03:19:57.189Z,966.61
2022-10-22T03:20:57.482Z,966.65
2022-10-22T03:21:57.749Z,966.60
2022-10-22T03:22:58.023Z,966.58
2022-10-22T03:23:58.312Z,966.59
2022-10-22T03:24:58.589Z,966.60
2022-10-22T03:26:59.147Z,966.61
2022-10-22T03:27:59.455Z,966.61
2022-10-22T03:28:59.739Z,966.64
2022-10-22T03:30:00.002Z,966.69
2022-10-22T03:31:00.280Z,966.73
2022-10-22T03:32:00.555Z,966.72
2022-10-22T03:33:00.846Z,966.74
2022-10-22T03:34:01.137Z,966.72
2022-10-22T03:35:01.430Z,966.77
2022-10-22T03:36:01.740Z,966.84
2022-10-22T03:37:02.041Z,966.81
2022-10-22T03:38:02.319Z,966.76
2022-10-22T03:39:02.599Z,966.75
2022-10-22T03:40:02.895Z,966.67
2022-10-22T03:41:03.225Z,966.70
2022-10-22T03:42:03.499Z,966.70
2022-10-22T03:43:03.782Z,966.73
2022-10-22T03:44:04.096Z,966.76
2022-10-22T03:45:04.437Z,966.77
2022-10-22T03:46:04.597Z,966.77
2022-10-22T03:47:04.881Z,966.79
2022-10-22T03:48:05.159Z,966.77
2022-10-22T03:49:05.477Z,966.79
2022-10-22T03:50:05.754Z,966.77
2022-10-22T03:51:06.025Z,966.77
2022-10-22T03:52:06.277Z,966.74
2022-10-22T03:53:06.561Z,966.77
2022-10-22T03:54:06.915Z,966.71
2022-10-22T03:55:07.211Z,966.70
2022-10-22T03:56:07.487Z,966.73
2022-10-22T03:57:07.739Z,966.72
2022-10-22T03:58:08.009Z,966.70
2022-10-22T03:59:08.297Z,966.68
2022-10-22T04:00:08.567Z,966.71
2022-10-22T04:01:08.889Z,966.69
2022-10-22T04:02:09.122Z,966.70
2022-10-22T04:03:09.381Z,966.72
2022-10-22T04:04:09.689Z,966.72
2022-10-22T04:05:10.012Z,966.71
2022-10-22T04:06:10.256Z,966.70
2022-10-22T04:07:10.536Z,966.74
2022-10-22T04:08:10.837Z,966.74
2022-10-22T04:09:11.193Z,966.73
2022-10-22T04:10:11.399Z,966.75
2022-10-22T04:11:11.679Z,966.74
2022-10-22T04:12:11.957Z,966.79
2022-10-22T04:13:12.205Z,966.81
2022-10-22T04:14:12.478Z,966.81
2022-10-22T04:15:12.741Z,966.83
2022-10-22T04:16:12.999Z,966.84
2022-10-22T04:17:13.303Z,966.85
2022-10-22T04:18:13.576Z,966.88
2022-10-22T04:19:13.840Z,966.92
2022-10-22T04:20:14.129Z,966.88
2022-10-22T04:21:14.445Z,966.87
2022-10-22T04:22:14.750Z,966.86
2022-10-22T04:23:15.018Z,966.86
2022-10-22T04:24:15.267Z,966.88
2022-10-22T04:25:15.532Z,966.90
2022-10-22T04:26:15.852Z,966.93
2022-10-22T04:27:16.147Z,966.95
2022-10-22T04:28:16.435Z,966.99
2022-10-22T04:29:16.720Z,966.97
2022-10-22T04:30:16.989Z,966.99
2022-10-22T04:31:17.311Z,966.99
2022-10-22T04:32:17.590Z,966.96
2022-10-22T04:33:17.838Z,966.94
2022-10-22T04:34:18.127Z,966.95
2022-10-22T04:35:18.433Z,966.98
2022-10-22T04:36:18.756Z,966.99
2022-10-22T04:37:19.032Z,967.03
2022-10-22T04:38:19.280Z,966.98
2022-10-22T04:39:19.588Z,966.90
2022-10-22T04:40:19.852Z,966.86
2022-10-22T04:41:20.116Z,966.84
2022-10-22T04:42:20.389Z,966.85
2022-10-22T04:43:20.688Z,966.87
2022-10-22T04:44:20.981Z,966.84
2022-10-22T04:45:21.184Z,966.90
2022-10-22T04:46:21.443Z,966.93
2022-10-22T04:47:21.740Z,966.90
2022-10-22T04:48:22.009Z,966.93
2022-10-22T04:49:22.323Z,966.93
2022-10-22T04:50:22.611Z,966.93
2022-10-22T04:51:22.895Z,966.91
2022-10-22T04:52:23.198Z,966.96
2022-10-22T04:53:23.467Z,966.88
2022-10-22T04:54:25.062Z,966.94
2022-10-22T04:55:24.137Z,966.98
2022-10-22T04:56:24.307Z,967.03
2022-10-22T04:57:24.625Z,967.01
2022-10-22T04:58:24.893Z,967.02
2022-10-22T04:59:25.157Z,967.01
2022-10-22T05:00:25.440Z,966.95
2022-10-22T05:01:25.801Z,966.96
2022-10-22T05:02:26.079Z,966.99
2022-10-22T05:03:26.352Z,966.97
2022-10-22T05:04:26.630Z,966.93
2022-10-22T05:05:26.919Z,966.92
2022-10-22T05:06:27.197Z,966.88
2022-10-22T05:07:27.485Z,966.86
2022-10-22T05:08:27.769Z,966.77
2022-10-22T05:09:28.058Z,966.77
2022-10-22T05:10:28.335Z,966.80
2022-10-22T05:11:28.589Z,966.80
2022-10-22T05:12:28.878Z,966.81
2022-10-22T05:13:29.170Z,966.82
2022-10-22T05:14:29.446Z,966.84
2022-10-22T05:15:29.722Z,966.85
2022-10-22T05:16:30.014Z,966.91
2022-10-22T05:17:30.334Z,966.89
2022-10-22T05:18:30.618Z,966.94
2022-10-22T05:19:30.917Z,966.92
2022-10-22T05:20:31.184Z,966.93
2022-10-22T05:21:31.467Z,966.90
2022-10-22T05:22:31.746Z,966.89
2022-10-22T05:23:32.059Z,966.90
2022-10-22T05:24:32.359Z,966.87
2022-10-22T05:25:32.628Z,966.85
2022-10-22T05:26:32.940Z,966.86
2022-10-22T05:27:33.215Z,966.86
2022-10-22T05:28:33.497Z,966.84
2022-10-22T05:29:33.797Z,966.83
2022-10-22T05:30:34.065Z,966.84
2022-10-22T05:31:34.337Z,966.85
2022-10-22T05:32:34.592Z,966.84
2022-10-22T05:33:34.851Z,966.79
2022-10-22T05:34:35.148Z,966.85
2022-10-22T05:35:35.431Z,966.94
2022-10-22T05:36:35.699Z,966.95
2022-10-22T05:37:35.968Z,966.97
2022-10-22T05:38:36.247Z,967.00
2022-10-22T05:39:36.537Z,967.00
2022-10-22T05:40:36.838Z,967.02
2022-10-22T05:41:37.122Z,967.10
2022-10-22T05:42:37.591Z,967.13
2022-10-22T05:43:37.688Z,967.15
2022-10-22T05:44:37.936Z,967.06
2022-10-22T05:45:38.190Z,967.04
2022-10-22T05:46:38.443Z,967.12
2022-10-22T05:47:38.712Z,967.11
2022-10-22T05:48:38.999Z,967.10
2022-10-22T05:49:39.284Z,967.07
2022-10-22T05:50:39.568Z,967.09
2022-10-22T05:51:39.891Z,967.11
2022-10-22T05:52:40.355Z,967.12
2022-10-22T05:53:40.509Z,967.12
2022-10-22T05:54:40.786Z,967.15
2022-10-22T05:55:41.070Z,967.12
2022-10-22T05:56:41.374Z,967.15
2022-10-22T05:57:41.653Z,967.17
2022-10-22T05:58:41.925Z,967.15
2022-10-22T05:59:42.179Z,967.14
2022-10-22T06:00:42.442Z,967.10
2022-10-22T06:01:42.735Z,967.15
2022-10-22T06:02:43.215Z,967.20
2022-10-22T06:03:43.347Z,967.21
2022-10-22T06:04:43.661Z,967.20
2022-10-22T06:05:43.932Z,967.28
2022-10-22T06:06:44.251Z,967.30
2022-10-22T06:07:44.521Z,967.27
2022-10-22T06:08:44.866Z,967.35
2022-10-22T06:09:45.048Z,967.33
2022-10-22T06:10:45.331Z,967.35
2022-10-22T06:11:45.646Z,967.29
2022-10-22T06:12:45.939Z,967.30
2022-10-22T06:13:46.219Z,967.30
2022-10-22T06:14:46.492Z,967.31
2022-10-22T06:15:46.758Z,967.33
2022-10-22T06:16:47.010Z,967.30
2022-10-22T06:17:47.321Z,967.29
2022-10-22T06:18:47.579Z,967.30
2022-10-22T06:19:47.857Z,967.30
2022-10-22T06:20:48.131Z,967.31
2022-10-22T06:21:48.399Z,967.34
2022-10-22T06:22:48.688Z,967.40
2022-10-22T06:23:48.970Z,967.45
2022-10-22T06:24:49.279Z,967.48
2022-10-22T06:25:49.547Z,967.48
2022-10-22T06:26:49.811Z,967.49
2022-10-22T06:27:50.102Z,967.47
2022-10-22T06:28:50.379Z,967.44
2022-10-22T06:29:50.659Z,967.42
2022-10-22T06:30:50.920Z,967.41
2022-10-22T06:31:51.173Z,967.41
2022-10-22T06:32:51.466Z,967.40
2022-10-22T06:33:51.739Z,967.47
2022-10-22T06:34:52.013Z,967.54
2022-10-22T06:35:52.262Z,967.57
2022-10-22T06:36:52.530Z,967.67
2022-10-22T06:37:52.849Z,967.69
2022-10-22T06:38:53.136Z,967.68
2022-10-22T06:39:53.425Z,967.71
2022-10-22T06:40:53.689Z,967.73
2022-10-22T06:41:53.958Z,967.76
2022-10-22T06:42:54.251Z,967.81
2022-10-22T06:43:54.508Z,967.82
2022-10-22T06:44:54.822Z,967.84
2022-10-22T06:45:55.085Z,967.83
2022-10-22T06:46:55.378Z,967.87
2022-10-22T06:47:55.661Z,967.80
2022-10-22T06:48:55.976Z,967.81
2022-10-22T06:49:56.300Z,967.85
2022-10-22T06:50:56.568Z,967.79
2022-10-22T06:51:56.866Z,967.80
2022-10-22T06:52:57.139Z,967.82
2022-10-22T06:53:57.493Z,967.80
2022-10-22T06:54:57.687Z,967.83
2022-10-22T06:55:57.967Z,967.85
2022-10-22T06:56:58.233Z,967.84
2022-10-22T06:57:58.512Z,967.87
2022-10-22T06:58:58.790Z,967.85
2022-10-22T06:59:59.088Z,967.83
2022-10-22T07:00:59.443Z,967.85
2022-10-22T07:01:59.641Z,967.83
2022-10-22T07:02:59.969Z,967.83
2022-10-22T07:04:00.269Z,967.88
2022-10-22T07:05:00.551Z,967.89
2022-10-22T07:06:00.861Z,967.91
2022-10-22T07:07:01.168Z,967.90
2022-10-22T07:08:01.432Z,967.93
2022-10-22T07:09:01.831Z,967.94
2022-10-22T07:10:02.051Z,967.92
2022-10-22T07:11:02.332Z,967.93
2022-10-22T07:12:02.679Z,967.95
2022-10-22T07:13:02.846Z,968.04
2022-10-22T07:14:03.107Z,968.03
2022-10-22T07:15:03.393Z,968.06
2022-10-22T07:16:03.649Z,968.10
2022-10-22T07:17:03.963Z,968.07
2022-10-22T07:18:04.251Z,968.09
2022-10-22T07:19:04.581Z,968.12
2022-10-22T07:20:04.782Z,968.12
2022-10-22T07:21:05.062Z,968.10
2022-10-22T07:22:05.344Z,968.10
2022-10-22T07:23:05.684Z,968.12
2022-10-22T07:24:06.008Z,968.17
2022-10-22T07:25:07.480Z,968.16
2022-10-22T07:26:06.585Z,968.18
2022-10-22T07:27:09.439Z,968.19
2022-10-22T07:28:07.162Z,968.21
2022-10-22T07:29:07.490Z,968.20
2022-10-22T07:30:07.768Z,968.24
2022-10-22T07:31:08.062Z,968.26
2022-10-22T07:32:08.351Z,968.28
2022-10-22T07:33:08.610Z,968.29
2022-10-22T07:34:08.917Z,968.27
2022-10-22T07:35:09.090Z,968.34
2022-10-22T07:36:09.369Z,968.32
2022-10-22T07:37:09.657Z,968.33
2022-10-22T07:38:09.925Z,968.33
2022-10-22T07:39:10.224Z,968.31
2022-10-22T07:40:10.521Z,968.30
2022-10-22T07:41:10.786Z,968.33
2022-10-22T07:42:11.068Z,968.31
2022-10-22T07:43:11.367Z,968.36
2022-10-22T07:44:11.652Z,968.34
2022-10-22T07:45:11.956Z,968.34
2022-10-22T07:46:12.228Z,968.37
2022-10-22T07:47:12.488Z,968.39
2022-10-22T07:48:12.738Z,968.38
2022-10-22T07:49:13.029Z,968.41
2022-10-22T07:50:13.301Z,968.45
2022-10-22T07:51:13.578Z,968.45
2022-10-22T07:52:13.872Z,968.47
2022-10-22T07:53:14.127Z,968.45
2022-10-22T07:54:14.379Z,968.49
2022-10-22T07:55:14.653Z,968.49
2022-10-22T07:56:14.937Z,968.45
2022-10-22T07:57:15.227Z,968.43
2022-10-22T07:58:15.483Z,968.43
2022-10-22T07:59:15.746Z,968.39
2022-10-22T08:00:16.025Z,968.41
2022-10-22T08:01:16.327Z,968.42
2022-10-22T08:02:16.641Z,968.47
2022-10-22T08:03:16.881Z,968.46
2022-10-22T08:04:17.138Z,968.44
2022-10-22T08:05:17.402Z,968.45
2022-10-22T08:06:17.672Z,968.40
2022-10-22T08:07:18.016Z,968.41
2022-10-22T08:08:18.268Z,968.39
2022-10-22T08:09:18.514Z,968.44
2022-10-22T08:10:18.768Z,968.44
2022-10-22T08:11:19.002Z,968.46
2022-10-22T08:12:19.390Z,968.50
2022-10-22T08:13:19.639Z,968.50
2022-10-22T08:14:20.004Z,968.50
2022-10-22T08:15:20.261Z,968.51
2022-10-22T08:16:20.524Z,968.47
2022-10-22T08:17:20.803Z,968.48
2022-10-22T08:18:21.051Z,968.46
2022-10-22T08:19:21.364Z,968.44
2022-10-22T08:20:21.602Z,968.47
2022-10-22T08:21:21.946Z,968.43
2022-10-22T08:22:22.206Z,968.45
2022-10-22T08:23:25.974Z,968.50
2022-10-22T08:24:23.754Z,968.48
2022-10-22T08:25:22.984Z,968.46
2022-10-22T08:26:23.253Z,968.47
2022-10-22T08:27:23.515Z,968.49
2022-10-22T08:28:23.765Z,968.50
2022-10-22T08:29:23.997Z,968.48
2022-10-22T08:30:24.291Z,968.50
2022-10-22T08:31:24.519Z,968.49
2022-10-22T08:32:24.773Z,968.52
2022-10-22T08:33:25.035Z,968.52
2022-10-22T08:34:25.282Z,968.55
2022-10-22T08:35:25.552Z,968.56
2022-10-22T08:36:25.811Z,968.55
2022-10-22T08:37:26.048Z,968.57
2022-10-22T08:38:26.285Z,968.55
2022-10-22T08:39:26.539Z,968.58
2022-10-22T08:40:26.816Z,968.58
2022-10-22T08:41:27.066Z,968.51
2022-10-22T08:42:27.324Z,968.54
2022-10-22T08:43:27.622Z,968.54
2022-10-22T08:44:27.865Z,968.48
2022-10-22T08:45:28.079Z,968.49
2022-10-22T08:46:28.321Z,968.48
2022-10-22T08:47:28.553Z,968.47
2022-10-22T08:48:28.822Z,968.50
2022-10-22T08:49:29.052Z,968.47
2022-10-22T08:50:29.330Z,968.50
2022-10-22T08:51:29.551Z,968.49
2022-10-22T08:52:29.790Z,968.48
2022-10-22T08:53:30.018Z,968.42
2022-10-22T08:54:30.364Z,968.43
2022-10-22T08:55:35.110Z,968.45
2022-10-22T08:56:31.926Z,968.43
2022-10-22T08:58:31.486Z,968.48
2022-10-22T08:59:31.831Z,968.45
2022-10-22T09:00:32.189Z,968.49
2022-10-22T09:01:32.422Z,968.53
2022-10-22T09:02:32.640Z,968.46
2022-10-22T09:03:32.996Z,968.50
2022-10-22T09:04:33.326Z,968.50
2022-10-22T09:05:33.659Z,968.54
2022-10-22T09:06:34.026Z,968.48
2022-10-22T09:07:34.283Z,968.48
2022-10-22T09:08:34.534Z,968.49
2022-10-22T09:09:34.764Z,968.47
2022-10-22T09:10:35.094Z,968.50
2022-10-22T09:11:35.413Z,968.46
2022-10-22T09:12:35.772Z,968.48
2022-10-22T09:13:36.020Z,968.47
2022-10-22T09:14:36.282Z,968.50
2022-10-22T09:15:36.510Z,968.51
2022-10-22T09:16:36.729Z,968.52
2022-10-22T09:17:36.926Z,968.58
2022-10-22T09:18:37.272Z,968.56
2022-10-22T09:19:37.513Z,968.56
2022-10-22T09:20:37.737Z,968.53
2022-10-22T09:21:38.055Z,968.56
2022-10-22T09:22:38.305Z,968.52
2022-10-22T09:23:38.643Z,968.58
2022-10-22T09:24:39.016Z,968.62
2022-10-22T09:25:39.234Z,968.55
2022-10-22T09:26:39.550Z,968.59
2022-10-22T09:27:40.419Z,968.59
2022-10-22T09:28:40.217Z,968.61
2022-10-22T09:29:40.564Z,968.60
2022-10-22T09:30:40.859Z,968.59
2022-10-22T09:31:41.091Z,968.63
2022-10-22T09:32:41.764Z,968.66
2022-10-22T09:33:41.568Z,968.66
2022-10-22T09:34:41.895Z,968.65
2022-10-22T09:35:42.306Z,968.68
2022-10-22T09:36:42.522Z,968.67
2022-10-22T09:37:42.852Z,968.63
2022-10-22T09:38:43.196Z,968.61
2022-10-22T09:39:43.536Z,968.68
2022-10-22T09:40:43.873Z,968.66
2022-10-22T09:41:44.208Z,968.65
2022-10-22T09:42:44.556Z,968.62
2022-10-22T09:43:44.789Z,968.57
2022-10-22T09:44:47.748Z,968.56
2022-10-22T09:45:45.266Z,968.54
2022-10-22T09:46:45.604Z,968.61
2022-10-22T09:48:01.017Z,968.63
2022-10-22T09:48:47.224Z,968.63
2022-10-22T09:49:46.485Z,968.62
2022-10-22T09:50:46.814Z,968.61
2022-10-22T09:51:47.155Z,968.55
2022-10-22T09:52:47.346Z,968.59
2022-10-22T09:53:47.674Z,968.55
2022-10-22T09:54:47.978Z,968.56
2022-10-22T09:55:48.340Z,968.57
2022-10-22T09:56:48.540Z,968.58
2022-10-22T09:57:49.374Z,968.56
2022-10-22T09:58:49.204Z,968.58
2022-10-22T09:59:49.393Z,968.57
2022-10-22T10:00:49.714Z,968.57
2022-10-22T10:01:50.007Z,968.53
2022-10-22T10:02:50.353Z,968.52
2022-10-22T10:03:50.615Z,968.51
2022-10-22T10:04:50.925Z,968.50
2022-10-22T10:05:51.270Z,968.50
2022-10-22T10:06:51.571Z,968.57
2022-10-22T10:07:51.879Z,968.55
2022-10-22T10:08:52.240Z,968.54
2022-10-22T10:09:52.482Z,968.53
2022-10-22T10:10:52.811Z,968.62
2022-10-22T10:11:53.129Z,968.57
2022-10-22T10:12:53.422Z,968.55
2022-10-22T10:13:53.727Z,968.62
2022-10-22T10:14:54.020Z,968.55
2022-10-22T10:15:54.338Z,968.56
2022-10-22T10:16:54.637Z,968.57
2022-10-22T10:17:54.951Z,968.54
2022-10-22T10:18:55.243Z,968.59
2022-10-22T10:19:57.009Z,968.60
2022-10-22T10:20:55.771Z,968.57
2022-10-22T10:21:56.072Z,968.61
2022-10-22T10:22:56.378Z,968.60
2022-10-22T10:23:56.683Z,968.61
2022-10-22T10:24:56.989Z,968.59
2022-10-22T10:25:57.323Z,968.60
2022-10-22T10:26:57.617Z,968.58
2022-10-22T10:27:57.927Z,968.59
2022-10-22T10:28:58.235Z,968.58
2022-10-22T10:29:58.569Z,968.61
2022-10-22T10:30:58.872Z,968.58
2022-10-22T10:31:59.181Z,968.66
2022-10-22T10:32:59.470Z,968.55
2022-10-22T10:33:59.758Z,968.64
2022-10-22T10:35:00.103Z,968.65
2022-10-22T10:36:00.296Z,968.69
2022-10-22T10:37:00.587Z,968.59
2022-10-22T10:38:00.873Z,968.59
2022-10-22T10:39:01.204Z,968.64
2022-10-22T10:40:01.544Z,968.60
2022-10-22T10:41:01.853Z,968.61
2022-10-22T10:42:02.181Z,968.61
2022-10-22T10:43:02.490Z,968.71
2022-10-22T10:44:02.899Z,968.66
2022-10-22T10:45:03.171Z,968.70
2022-10-22T10:46:03.365Z,968.70
2022-10-22T10:47:03.690Z,968.71
2022-10-22T10:48:04.020Z,968.74
2022-10-22T10:49:04.332Z,968.75
2022-10-22T10:50:04.696Z,968.78
2022-10-22T10:51:04.904Z,968.77
2022-10-22T10:52:05.242Z,968.76
2022-10-22T10:53:05.461Z,968.78
2022-10-22T10:54:05.780Z,968.75
2022-10-22T10:55:06.151Z,968.71
2022-10-22T10:56:06.356Z,968.71
2022-10-22T10:57:06.680Z,968.70
2022-10-22T10:58:07.004Z,968.72
2022-10-22T10:59:07.337Z,968.72
2022-10-22T11:00:07.682Z,968.67
2022-10-22T11:01:07.915Z,968.72
2022-10-22T11:02:08.160Z,968.65
2022-10-22T11:03:08.356Z,968.70
2022-10-22T11:04:08.669Z,968.66
2022-10-22T11:05:08.977Z,968.62
2022-10-22T11:06:09.307Z,968.63
2022-10-22T11:07:11.679Z,968.62
2022-10-22T11:08:10.953Z,968.54
2022-10-22T11:09:10.320Z,968.49
2022-10-22T11:10:10.532Z,968.48
2022-10-22T11:11:10.971Z,968.46
2022-10-22T11:12:11.087Z,968.44
2022-10-22T11:13:11.412Z,968.35
2022-10-22T11:14:11.606Z,968.35
2022-10-22T11:15:11.943Z,968.34
2022-10-22T11:16:12.287Z,968.26
2022-10-22T11:17:12.496Z,968.27
2022-10-22T11:18:12.810Z,968.23
2022-10-22T11:19:22.502Z,968.23
2022-10-22T11:20:14.409Z,968.21
2022-10-22T11:21:13.702Z,968.18
2022-10-22T11:22:13.926Z,968.22
2022-10-22T11:23:19.625Z,968.18
2022-10-22T11:24:15.441Z,968.14
2022-10-22T11:25:14.696Z,968.19
2022-10-22T11:26:15.018Z,968.14
2022-10-22T11:27:15.374Z,968.13
2022-10-22T11:29:15.852Z,968.08
2022-10-22T11:30:16.180Z,968.06
2022-10-22T11:31:16.371Z,968.00
2022-10-22T11:32:16.677Z,968.01
2022-10-22T11:33:16.994Z,968.04
2022-10-22T11:34:33.546Z,968.00
2022-10-22T11:35:22.239Z,968.00
2022-10-22T11:36:18.890Z,968.03
2022-10-22T11:37:18.149Z,968.04
2022-10-22T11:38:18.462Z,967.95
2022-10-22T11:39:18.814Z,967.95
2022-10-22T11:40:19.003Z,967.94
2022-10-22T11:41:19.324Z,967.98
2022-10-22T11:42:19.647Z,967.92
2022-10-22T11:43:19.970Z,967.96
2022-10-22T11:44:20.339Z,967.90
2022-10-22T11:45:20.531Z,967.93
2022-10-22T11:46:20.891Z,967.98
2022-10-22T11:47:21.112Z,967.94
2022-10-22T11:48:21.464Z,967.96
2022-10-22T11:49:21.642Z,968.03
2022-10-22T11:50:21.985Z,968.00
2022-10-22T11:51:22.318Z,968.09
2022-10-22T11:52:22.626Z,968.27
2022-10-22T11:53:22.941Z,968.19
2022-10-22T11:54:23.260Z,968.18
2022-10-22T11:55:23.579Z,968.25
2022-10-22T11:56:23.863Z,968.33
2022-10-22T11:57:24.151Z,968.21
2022-10-22T11:58:24.433Z,968.32
2022-10-22T11:59:24.692Z,968.37
2022-10-22T12:00:25.050Z,968.32
2022-10-22T12:01:25.443Z,967.86
2022-10-22T12:02:25.673Z,967.87
2022-10-22T12:03:25.956Z,967.88
2022-10-22T12:04:26.300Z,967.88
2022-10-22T12:05:26.558Z,967.84
2022-10-22T12:06:26.859Z,967.85
2022-10-22T12:07:27.180Z,967.86
2022-10-22T12:08:27.464Z,967.89
2022-10-22T12:09:27.774Z,967.84
2022-10-22T12:10:28.112Z,967.84
2022-10-22T12:11:28.326Z,967.86
2022-10-22T12:12:28.636Z,967.86
2022-10-22T12:13:28.934Z,967.95
2022-10-22T12:14:29.276Z,967.92
2022-10-22T12:15:29.581Z,967.93
2022-10-22T12:16:37.654Z,967.94
2022-10-22T12:17:31.237Z,967.94
2022-10-22T12:18:30.496Z,967.92
2022-10-22T12:19:30.846Z,967.92
2022-10-22T12:20:31.042Z,967.94
2022-10-22T12:21:31.350Z,967.97
2022-10-22T12:22:31.680Z,967.94
2022-10-22T12:23:31.993Z,967.94
2022-10-22T12:24:32.308Z,967.93
2022-10-22T12:25:35.809Z,967.87
2022-10-22T12:26:32.881Z,967.88
2022-10-22T12:27:33.197Z,967.92
2022-10-22T12:28:33.447Z,967.92
2022-10-22T12:29:33.779Z,967.90
2022-10-22T12:30:34.027Z,967.82
2022-10-22T12:31:34.336Z,967.83
2022-10-22T12:32:34.666Z,967.82
2022-10-22T12:33:34.978Z,967.76
2022-10-22T12:34:35.328Z,967.78
2022-10-22T12:35:35.641Z,967.77
2022-10-22T12:36:35.965Z,967.76
2022-10-22T12:37:36.288Z,967.75
2022-10-22T12:38:36.608Z,967.77
2022-10-22T12:39:36.958Z,967.74
2022-10-22T12:40:37.144Z,967.74
2022-10-22T12:41:37.474Z,967.78
2022-10-22T12:42:37.797Z,967.77
2022-10-22T12:43:38.125Z,967.77
2022-10-22T12:44:38.477Z,967.75
2022-10-22T12:45:38.676Z,967.77
2022-10-22T12:46:38.959Z,967.77
2022-10-22T12:47:39.533Z,967.68
2022-10-22T12:48:39.629Z,967.72
2022-10-22T12:49:39.972Z,967.70
2022-10-22T12:50:40.166Z,967.70
2022-10-22T12:51:40.499Z,967.71
2022-10-22T12:52:41.226Z,967.68
2022-10-22T12:53:41.164Z,967.68
2022-10-22T12:54:41.424Z,967.68
2022-10-22T12:55:41.622Z,967.68
2022-10-22T12:56:41.970Z,967.68
2022-10-22T12:57:42.284Z,967.70
2022-10-22T12:58:42.609Z,967.66
2022-10-22T12:59:47.194Z,967.62
2022-10-22T13:00:44.290Z,967.66
2022-10-22T13:01:43.565Z,967.65
2022-10-22T13:02:43.921Z,967.63
2022-10-22T13:03:44.124Z,967.60
2022-10-22T13:04:44.469Z,967.57
2022-10-22T13:05:44.714Z,967.60
2022-10-22T13:06:44.908Z,967.61
2022-10-22T13:07:45.235Z,967.61
2022-10-22T13:08:45.579Z,967.62
2022-10-22T13:09:45.823Z,967.59
2022-10-22T13:10:46.177Z,967.61
2022-10-22T13:11:46.375Z,967.60
2022-10-22T13:12:46.702Z,967.56
2022-10-22T13:13:47.018Z,967.56
2022-10-22T13:14:47.342Z,967.54
2022-10-22T13:15:47.694Z,967.55
2022-10-22T13:16:47.903Z,967.52
2022-10-22T13:17:48.298Z,967.52
2022-10-22T13:18:48.500Z,967.60
2022-10-22T13:19:48.832Z,967.59
2022-10-22T13:20:49.132Z,967.59
2022-10-22T13:21:49.445Z,967.62
2022-10-22T13:22:49.787Z,967.61
2022-10-22T13:23:50.129Z,967.59
2022-10-22T13:24:50.383Z,967.59
2022-10-22T13:25:50.620Z,967.63
2022-10-22T13:26:50.913Z,967.63
2022-10-22T13:27:51.206Z,967.72
2022-10-22T13:28:51.555Z,967.72
2022-10-22T13:29:51.737Z,967.68
2022-10-22T13:30:52.058Z,967.69
2022-10-22T13:31:52.375Z,967.70
2022-10-22T13:32:52.689Z,967.71
2022-10-22T13:33:53.004Z,967.76
2022-10-22T13:34:53.332Z,967.74
2022-10-22T13:35:53.550Z,967.73
2022-10-22T13:36:53.871Z,967.72
2022-10-22T13:37:54.191Z,967.71
2022-10-22T13:38:54.495Z,967.71
2022-10-22T13:39:54.844Z,967.71
2022-10-22T13:40:55.209Z,967.72
2022-10-22T13:41:59.298Z,967.72
2022-10-22T13:42:55.755Z,967.73
2022-10-22T13:43:56.059Z,967.73
2022-10-22T13:44:56.377Z,967.73
2022-10-22T13:45:56.705Z,967.75
2022-10-22T13:46:57.060Z,967.75
2022-10-22T13:47:57.268Z,967.74
2022-10-22T13:48:57.581Z,967.77
2022-10-22T13:49:57.886Z,967.80
2022-10-22T13:50:58.200Z,967.76
2022-10-22T13:51:58.553Z,967.76
2022-10-22T13:52:58.751Z,967.78
2022-10-22T13:53:59.061Z,967.78
2022-10-22T13:54:59.364Z,967.75
2022-10-22T13:55:59.681Z,967.74
2022-10-22T13:57:00.015Z,967.75
2022-10-22T13:58:00.263Z,967.74
2022-10-22T13:59:00.447Z,967.76
2022-10-22T14:00:00.749Z,967.76
2022-10-22T14:01:01.133Z,967.73
2022-10-22T14:02:01.347Z,967.73
2022-10-22T14:03:01.686Z,967.74
2022-10-22T14:04:02.073Z,967.78
2022-10-22T14:05:02.277Z,967.80
2022-10-22T14:06:02.558Z,967.79
2022-10-22T14:07:03.922Z,967.77
2022-10-22T14:08:03.145Z,967.74
2022-10-22T14:09:03.532Z,967.72
2022-10-22T14:10:03.770Z,967.74
2022-10-22T14:11:04.093Z,967.68
2022-10-22T14:12:04.382Z,967.73
2022-10-22T14:13:04.672Z,967.76
2022-10-22T14:14:05.040Z,967.76
2022-10-22T14:15:05.235Z,967.73
2022-10-22T14:16:05.531Z,967.73
2022-10-22T14:17:05.838Z,967.78
2022-10-22T14:18:06.149Z,967.78
2022-10-22T14:19:06.482Z,967.78
2022-10-22T14:20:06.792Z,967.81
2022-10-22T14:21:07.095Z,967.84
2022-10-22T14:22:07.389Z,967.82
2022-10-22T14:23:07.830Z,967.85
2022-10-22T14:24:09.541Z,967.90
2022-10-22T14:25:08.194Z,967.93
2022-10-22T14:26:08.493Z,967.97
2022-10-22T14:27:08.811Z,967.91
2022-10-22T14:28:09.150Z,967.93
2022-10-22T14:29:10.765Z,967.99
2022-10-22T14:30:09.616Z,967.99
2022-10-22T14:31:13.786Z,968.04
2022-10-22T14:32:10.147Z,968.02
2022-10-22T14:33:10.436Z,967.52
2022-10-22T14:34:10.745Z,967.50
2022-10-22T14:35:11.053Z,967.49
2022-10-22T14:36:11.388Z,967.51
2022-10-22T14:37:11.680Z,967.54
2022-10-22T14:38:11.964Z,967.47